X  Chiuso Dati meteorologici dell'aviazione (METAR)     LIPX Verona Villafranca Airport
Temperatura
9°C Temperatura
1°C Punto di rugiada
58% Umidità



Vento
5 KM/H
3 MPH
1 M/S
3 KTS



310°
NO
Condizioni attuali

Chiaro Chiaro
Pressione 1014.92 (hPa) - 29.97 (inHg)
Visibilità 6.2 (miglio) - 10 (km)
Aeroporto
Aeroporto-code LIPX

Posizione: Verona Villafranca Airport
Distanza: 14 (km)

Metar:
LIPX 171950Z 31003KT CAVOK 09/01 Q1015

Ore: 17-04-2021 21:50 CEST